sensor_id;sensor_type;location;lat;lon;timestamp;pressure;altitude;pressure_sealevel;temperature
74321;BMP280;62738;45.772;4.804;2023-07-28T00:00:10;99183.88;;;27.51
74321;BMP280;62738;45.772;4.804;2023-07-28T00:02:37;99186.81;;;27.67
74321;BMP280;62738;45.772;4.804;2023-07-28T00:05:04;99192.44;;;27.55
74321;BMP280;62738;45.772;4.804;2023-07-28T00:07:30;99196.69;;;27.46
74321;BMP280;62738;45.772;4.804;2023-07-28T00:10:01;99194.50;;;27.44
74321;BMP280;62738;45.772;4.804;2023-07-28T00:12:28;99202.34;;;27.44
74321;BMP280;62738;45.772;4.804;2023-07-28T00:14:54;99207.34;;;27.47
74321;BMP280;62738;45.772;4.804;2023-07-28T00:17:21;99218.75;;;27.49
74321;BMP280;62738;45.772;4.804;2023-07-28T00:19:48;99210.22;;;27.49
74321;BMP280;62738;45.772;4.804;2023-07-28T00:22:14;99220.94;;;27.59
74321;BMP280;62738;45.772;4.804;2023-07-28T00:24:41;99234.50;;;27.62
74321;BMP280;62738;45.772;4.804;2023-07-28T00:27:08;99241.63;;;27.61
74321;BMP280;62738;45.772;4.804;2023-07-28T00:29:34;99243.72;;;27.55
74321;BMP280;62738;45.772;4.804;2023-07-28T00:32:01;99240.81;;;27.45
74321;BMP280;62738;45.772;4.804;2023-07-28T00:34:28;99244.41;;;27.49
74321;BMP280;62738;45.772;4.804;2023-07-28T00:36:54;99253.69;;;27.54
74321;BMP280;62738;45.772;4.804;2023-07-28T00:39:21;99256.63;;;27.64
74321;BMP280;62738;45.772;4.804;2023-07-28T00:41:47;99258.00;;;27.55
74321;BMP280;62738;45.772;4.804;2023-07-28T00:44:14;99253.56;;;27.29
74321;BMP280;62738;45.772;4.804;2023-07-28T00:46:44;99253.56;;;27.29
74321;BMP280;62738;45.772;4.804;2023-07-28T00:49:11;99254.97;;;27.28
74321;BMP280;62738;45.772;4.804;2023-07-28T00:51:38;99265.66;;;27.26
74321;BMP280;62738;45.772;4.804;2023-07-28T00:54:04;99267.84;;;27.33
74321;BMP280;62738;45.772;4.804;2023-07-28T00:56:31;99267.84;;;27.35
74321;BMP280;62738;45.772;4.804;2023-07-28T00:58:59;99269.25;;;27.32
74321;BMP280;62738;45.772;4.804;2023-07-28T01:01:25;99272.78;;;27.31
74321;BMP280;62738;45.772;4.804;2023-07-28T01:03:53;99267.88;;;27.40
74321;BMP280;62738;45.772;4.804;2023-07-28T01:06:26;99271.47;;;27.42
74321;BMP280;62738;45.772;4.804;2023-07-28T01:09:01;99269.22;;;27.28
74321;BMP280;62738;45.772;4.804;2023-07-28T01:11:28;99262.16;;;27.33
74321;BMP280;62738;45.772;4.804;2023-07-28T01:13:55;99265.72;;;27.36
74321;BMP280;62738;45.772;4.804;2023-07-28T01:16:22;99274.91;;;27.28
74321;BMP280;62738;45.772;4.804;2023-07-28T01:18:49;99274.19;;;27.24
74321;BMP280;62738;45.772;4.804;2023-07-28T01:21:26;99269.09;;;27.12
74321;BMP280;62738;45.772;4.804;2023-07-28T01:24:15;99283.38;;;27.14
74321;BMP280;62738;45.772;4.804;2023-07-28T01:26:46;99275.44;;;27.03
74321;BMP280;62738;45.772;4.804;2023-07-28T01:29:14;99271.88;;;27.00
74321;BMP280;62738;45.772;4.804;2023-07-28T01:31:41;99265.56;;;27.14
74321;BMP280;62738;45.772;4.804;2023-07-28T01:34:08;99268.28;;;26.98
74321;BMP280;62738;45.772;4.804;2023-07-28T01:36:35;99276.88;;;27.02
74321;BMP280;62738;45.772;4.804;2023-07-28T01:39:02;99277.50;;;26.94
74321;BMP280;62738;45.772;4.804;2023-07-28T01:41:29;99283.91;;;26.93
74321;BMP280;62738;45.772;4.804;2023-07-28T01:43:55;99279.59;;;26.90
74321;BMP280;62738;45.772;4.804;2023-07-28T01:46:22;99271.06;;;26.90
74321;BMP280;62738;45.772;4.804;2023-07-28T01:48:49;99268.25;;;26.92
74321;BMP280;62738;45.772;4.804;2023-07-28T01:51:15;99276.78;;;26.94
74321;BMP280;62738;45.772;4.804;2023-07-28T01:53:42;99269.69;;;26.95
74321;BMP280;62738;45.772;4.804;2023-07-28T01:56:09;99268.34;;;27.02
74321;BMP280;62738;45.772;4.804;2023-07-28T01:58:36;99258.41;;;27.07
74321;BMP280;62738;45.772;4.804;2023-07-28T02:01:03;99258.34;;;26.99
74321;BMP280;62738;45.772;4.804;2023-07-28T02:03:29;99261.88;;;26.95
74321;BMP280;62738;45.772;4.804;2023-07-28T02:05:56;99264.81;;;27.09
74321;BMP280;62738;45.772;4.804;2023-07-28T02:08:23;99266.94;;;27.07
74321;BMP280;62738;45.772;4.804;2023-07-28T02:10:50;99266.16;;;26.98
74321;BMP280;62738;45.772;4.804;2023-07-28T02:13:16;99256.22;;;27.03
74321;BMP280;62738;45.772;4.804;2023-07-28T02:15:43;99254.75;;;26.96
74321;BMP280;62738;45.772;4.804;2023-07-28T02:18:09;99259.00;;;26.93
74321;BMP280;62738;45.772;4.804;2023-07-28T02:20:36;99257.53;;;26.88
74321;BMP280;62738;45.772;4.804;2023-07-28T02:23:04;99247.53;;;26.81
74321;BMP280;62738;45.772;4.804;2023-07-28T02:25:31;99255.44;;;26.93
74321;BMP280;62738;45.772;4.804;2023-07-28T02:27:57;99256.13;;;26.89
74321;BMP280;62738;45.772;4.804;2023-07-28T02:30:24;99263.19;;;26.84
74321;BMP280;62738;45.772;4.804;2023-07-28T02:32:51;99257.50;;;26.84
74321;BMP280;62738;45.772;4.804;2023-07-28T02:35:18;99274.59;;;26.86
74321;BMP280;62738;45.772;4.804;2023-07-28T02:37:47;99264.72;;;26.95
74321;BMP280;62738;45.772;4.804;2023-07-28T02:40:13;99270.19;;;26.71
74321;BMP280;62738;45.772;4.804;2023-07-28T02:42:40;99260.06;;;26.50
74321;BMP280;62738;45.772;4.804;2023-07-28T02:45:07;99257.09;;;26.40
74321;BMP280;62738;45.772;4.804;2023-07-28T02:47:34;99252.84;;;26.41
74321;BMP280;62738;45.772;4.804;2023-07-28T02:50:00;99258.50;;;26.39
74321;BMP280;62738;45.772;4.804;2023-07-28T02:52:27;99265.78;;;26.54
74321;BMP280;62738;45.772;4.804;2023-07-28T02:54:55;99258.56;;;26.43
74321;BMP280;62738;45.772;4.804;2023-07-28T02:57:22;99254.25;;;26.38
74321;BMP280;62738;45.772;4.804;2023-07-28T02:59:48;99254.91;;;26.34
74321;BMP280;62738;45.772;4.804;2023-07-28T03:02:15;99258.41;;;26.31
74321;BMP280;62738;45.772;4.804;2023-07-28T03:04:42;99250.69;;;26.37
74321;BMP280;62738;45.772;4.804;2023-07-28T03:07:08;99253.59;;;26.45
74321;BMP280;62738;45.772;4.804;2023-07-28T03:09:35;99262.84;;;26.48
74321;BMP280;62738;45.772;4.804;2023-07-28T03:12:02;99255.84;;;26.57
74321;BMP280;62738;45.772;4.804;2023-07-28T03:14:29;99261.41;;;26.43
74321;BMP280;62738;45.772;4.804;2023-07-28T03:16:56;99262.78;;;26.40
74321;BMP280;62738;45.772;4.804;2023-07-28T03:19:22;99269.75;;;26.27
74321;BMP280;62738;45.772;4.804;2023-07-28T03:21:49;99273.88;;;26.11
74321;BMP280;62738;45.772;4.804;2023-07-28T03:24:15;99280.94;;;26.10
74321;BMP280;62738;45.772;4.804;2023-07-28T03:26:42;99277.38;;;26.08
74321;BMP280;62738;45.772;4.804;2023-07-28T03:29:09;99287.94;;;26.01
74321;BMP280;62738;45.772;4.804;2023-07-28T03:31:35;99276.38;;;25.85
74321;BMP280;62738;45.772;4.804;2023-07-28T03:34:03;99274.78;;;25.74
74321;BMP280;62738;45.772;4.804;2023-07-28T03:36:30;99273.28;;;25.69
74321;BMP280;62738;45.772;4.804;2023-07-28T03:38:57;99276.25;;;25.75
74321;BMP280;62738;45.772;4.804;2023-07-28T03:41:23;99272.28;;;25.46
74321;BMP280;62738;45.772;4.804;2023-07-28T03:43:50;99269.94;;;25.33
74321;BMP280;62738;45.772;4.804;2023-07-28T03:46:17;99272.16;;;25.38
74321;BMP280;62738;45.772;4.804;2023-07-28T03:48:43;99272.75;;;25.31
74321;BMP280;62738;45.772;4.804;2023-07-28T03:51:10;99278.41;;;25.29
74321;BMP280;62738;45.772;4.804;2023-07-28T03:53:36;99279.84;;;25.30
74321;BMP280;62738;45.772;4.804;2023-07-28T03:56:03;99270.72;;;25.37
74321;BMP280;62738;45.772;4.804;2023-07-28T03:58:30;99277.94;;;25.46
74321;BMP280;62738;45.772;4.804;2023-07-28T04:00:57;99270.34;;;25.61
74321;BMP280;62738;45.772;4.804;2023-07-28T04:03:24;99280.69;;;25.38
74321;BMP280;62738;45.772;4.804;2023-07-28T04:05:51;99270.66;;;25.33
74321;BMP280;62738;45.772;4.804;2023-07-28T04:08:17;99279.66;;;25.18
74321;BMP280;62738;45.772;4.804;2023-07-28T04:10:44;99280.22;;;25.08
74321;BMP280;62738;45.772;4.804;2023-07-28T04:13:10;99270.38;;;25.15
74321;BMP280;62738;45.772;4.804;2023-07-28T04:15:37;99279.34;;;24.97
74321;BMP280;62738;45.772;4.804;2023-07-28T04:18:04;99281.28;;;24.89
74321;BMP280;62738;45.772;4.804;2023-07-28T04:20:33;99279.66;;;24.76
74321;BMP280;62738;45.772;4.804;2023-07-28T04:23:00;99281.81;;;24.77
74321;BMP280;62738;45.772;4.804;2023-07-28T04:25:26;99277.16;;;24.94
74321;BMP280;62738;45.772;4.804;2023-07-28T04:27:53;99282.25;;;25.03
74321;BMP280;62738;45.772;4.804;2023-07-28T04:30:21;99277.53;;;24.76
74321;BMP280;62738;45.772;4.804;2023-07-28T04:32:47;99270.88;;;24.62
74321;BMP280;62738;45.772;4.804;2023-07-28T04:35:14;99280.50;;;24.46
74321;BMP280;62738;45.772;4.804;2023-07-28T04:37:41;99280.25;;;24.32
74321;BMP280;62738;45.772;4.804;2023-07-28T04:40:08;99278.00;;;24.25
74321;BMP280;62738;45.772;4.804;2023-07-28T04:42:35;99276.56;;;24.26
74321;BMP280;62738;45.772;4.804;2023-07-28T04:45:03;99278.03;;;24.27
74321;BMP280;62738;45.772;4.804;2023-07-28T04:47:30;99278.75;;;24.27
74321;BMP280;62738;45.772;4.804;2023-07-28T04:49:56;99281.69;;;24.33
74321;BMP280;62738;45.772;4.804;2023-07-28T04:52:23;99277.66;;;24.46
74321;BMP280;62738;45.772;4.804;2023-07-28T04:54:50;99297.97;;;24.71
74321;BMP280;62738;45.772;4.804;2023-07-28T04:57:17;99287.63;;;24.85
74321;BMP280;62738;45.772;4.804;2023-07-28T04:59:45;99291.84;;;24.84
74321;BMP280;62738;45.772;4.804;2023-07-28T05:02:11;99291.47;;;24.62
74321;BMP280;62738;45.772;4.804;2023-07-28T05:04:38;99296.34;;;24.57
74321;BMP280;62738;45.772;4.804;2023-07-28T05:07:05;99300.44;;;24.50
74321;BMP280;62738;45.772;4.804;2023-07-28T05:09:31;99302.56;;;24.50
74321;BMP280;62738;45.772;4.804;2023-07-28T05:11:58;99305.47;;;24.54
74321;BMP280;62738;45.772;4.804;2023-07-28T05:14:25;99300.78;;;24.67
74321;BMP280;62738;45.772;4.804;2023-07-28T05:16:52;99298.84;;;24.79
74321;BMP280;62738;45.772;4.804;2023-07-28T05:19:19;99303.06;;;24.76
74321;BMP280;62738;45.772;4.804;2023-07-28T05:21:45;99300.50;;;24.90
74321;BMP280;62738;45.772;4.804;2023-07-28T05:24:12;99297.88;;;24.63
74321;BMP280;62738;45.772;4.804;2023-07-28T05:26:39;99299.59;;;24.44
74321;BMP280;62738;45.772;4.804;2023-07-28T05:29:05;99308.13;;;24.44
74321;BMP280;62738;45.772;4.804;2023-07-28T05:31:32;99310.72;;;24.68
74321;BMP280;62738;45.772;4.804;2023-07-28T05:33:59;99305.53;;;24.56
74321;BMP280;62738;45.772;4.804;2023-07-28T05:36:26;99292.50;;;24.43
74321;BMP280;62738;45.772;4.804;2023-07-28T05:38:53;99295.63;;;24.57
74321;BMP280;62738;45.772;4.804;2023-07-28T05:41:20;99295.97;;;24.37
74321;BMP280;62738;45.772;4.804;2023-07-28T05:43:47;99305.00;;;24.66
74321;BMP280;62738;45.772;4.804;2023-07-28T05:46:17;99298.63;;;24.65
74321;BMP280;62738;45.772;4.804;2023-07-28T05:48:44;99310.19;;;24.77
74321;BMP280;62738;45.772;4.804;2023-07-28T05:51:10;99303.41;;;24.56
74321;BMP280;62738;45.772;4.804;2023-07-28T05:53:37;99312.47;;;24.49
74321;BMP280;62738;45.772;4.804;2023-07-28T05:56:04;99321.91;;;24.60
74321;BMP280;62738;45.772;4.804;2023-07-28T05:58:31;99317.81;;;24.71
74321;BMP280;62738;45.772;4.804;2023-07-28T06:00:57;99313.94;;;24.90
74321;BMP280;62738;45.772;4.804;2023-07-28T06:03:24;99316.06;;;24.89
74321;BMP280;62738;45.772;4.804;2023-07-28T06:05:52;99312.63;;;24.95
74321;BMP280;62738;45.772;4.804;2023-07-28T06:08:19;99316.97;;;25.02
74321;BMP280;62738;45.772;4.804;2023-07-28T06:10:45;99330.97;;;25.32
74321;BMP280;62738;45.772;4.804;2023-07-28T06:13:12;99325.75;;;25.16
74321;BMP280;62738;45.772;4.804;2023-07-28T06:15:40;99326.66;;;25.27
74321;BMP280;62738;45.772;4.804;2023-07-28T06:18:07;99321.00;;;25.29
74321;BMP280;62738;45.772;4.804;2023-07-28T06:20:34;99332.06;;;25.54
74321;BMP280;62738;45.772;4.804;2023-07-28T06:23:01;99331.84;;;25.42
74321;BMP280;62738;45.772;4.804;2023-07-28T06:25:27;99339.53;;;25.34
74321;BMP280;62738;45.772;4.804;2023-07-28T06:27:54;99330.63;;;25.53
74321;BMP280;62738;45.772;4.804;2023-07-28T06:30:21;99332.94;;;25.67
74321;BMP280;62738;45.772;4.804;2023-07-28T06:32:48;99329.16;;;25.50
74321;BMP280;62738;45.772;4.804;2023-07-28T06:35:14;99327.56;;;25.87
74321;BMP280;62738;45.772;4.804;2023-07-28T06:37:42;99325.38;;;25.86
74321;BMP280;62738;45.772;4.804;2023-07-28T06:40:09;99331.19;;;25.96
74321;BMP280;62738;45.772;4.804;2023-07-28T06:42:36;99334.53;;;25.78
74321;BMP280;62738;45.772;4.804;2023-07-28T06:45:04;99331.19;;;25.94
74321;BMP280;62738;45.772;4.804;2023-07-28T06:47:30;99329.06;;;25.94
74321;BMP280;62738;45.772;4.804;2023-07-28T06:49:57;99329.03;;;25.90
74321;BMP280;62738;45.772;4.804;2023-07-28T06:52:24;99336.59;;;26.28
74321;BMP280;62738;45.772;4.804;2023-07-28T06:54:51;99350.03;;;26.25
74321;BMP280;62738;45.772;4.804;2023-07-28T06:57:17;99349.31;;;26.22
74321;BMP280;62738;45.772;4.804;2023-07-28T06:59:44;99355.13;;;26.33
74321;BMP280;62738;45.772;4.804;2023-07-28T07:02:11;99353.81;;;26.40
74321;BMP280;62738;45.772;4.804;2023-07-28T07:04:38;99344.06;;;26.61
74321;BMP280;62738;45.772;4.804;2023-07-28T07:07:05;99335.59;;;26.65
74321;BMP280;62738;45.772;4.804;2023-07-28T07:09:31;99329.88;;;26.63
74321;BMP280;62738;45.772;4.804;2023-07-28T07:11:58;99342.19;;;26.86
74321;BMP280;62738;45.772;4.804;2023-07-28T07:14:25;99340.19;;;27.00
74321;BMP280;62738;45.772;4.804;2023-07-28T07:16:51;99338.81;;;27.05
74321;BMP280;62738;45.772;4.804;2023-07-28T07:19:18;99342.44;;;27.16
74321;BMP280;62738;45.772;4.804;2023-07-28T07:21:45;99344.03;;;27.33
74321;BMP280;62738;45.772;4.804;2023-07-28T07:24:14;99344.16;;;27.53
74321;BMP280;62738;45.772;4.804;2023-07-28T07:26:40;99344.81;;;27.42
74321;BMP280;62738;45.772;4.804;2023-07-28T07:29:08;99339.81;;;27.46
74321;BMP280;62738;45.772;4.804;2023-07-28T07:31:39;99344.19;;;27.57
74321;BMP280;62738;45.772;4.804;2023-07-28T07:34:06;99345.69;;;27.74
74321;BMP280;62738;45.772;4.804;2023-07-28T07:36:32;99332.34;;;28.01
74321;BMP280;62738;45.772;4.804;2023-07-28T07:38:59;99332.38;;;28.17
74321;BMP280;62738;45.772;4.804;2023-07-28T07:41:26;99332.41;;;28.25
74321;BMP280;62738;45.772;4.804;2023-07-28T07:43:54;99330.31;;;28.44
74321;BMP280;62738;45.772;4.804;2023-07-28T07:46:22;99341.06;;;28.68
74321;BMP280;62738;45.772;4.804;2023-07-28T07:48:49;99345.34;;;28.81
74321;BMP280;62738;45.772;4.804;2023-07-28T07:51:16;99345.34;;;28.95
74321;BMP280;62738;45.772;4.804;2023-07-28T07:53:43;99345.38;;;29.11
74321;BMP280;62738;45.772;4.804;2023-07-28T07:56:10;99352.53;;;29.20
74321;BMP280;62738;45.772;4.804;2023-07-28T07:58:36;99351.78;;;29.26
74321;BMP280;62738;45.772;4.804;2023-07-28T08:01:03;99348.19;;;29.49
74321;BMP280;62738;45.772;4.804;2023-07-28T08:03:31;99343.88;;;29.54
74321;BMP280;62738;45.772;4.804;2023-07-28T08:05:58;99337.44;;;29.62
74321;BMP280;62738;45.772;4.804;2023-07-28T08:08:25;99327.38;;;29.75
74321;BMP280;62738;45.772;4.804;2023-07-28T08:10:54;99325.19;;;29.88
74321;BMP280;62738;45.772;4.804;2023-07-28T08:13:21;99325.16;;;29.92
74321;BMP280;62738;45.772;4.804;2023-07-28T08:15:48;99320.94;;;29.85
74321;BMP280;62738;45.772;4.804;2023-07-28T08:18:15;99325.94;;;29.78
74321;BMP280;62738;45.772;4.804;2023-07-28T08:20:42;99335.19;;;29.93
74321;BMP280;62738;45.772;4.804;2023-07-28T08:23:08;99334.38;;;30.12
74321;BMP280;62738;45.772;4.804;2023-07-28T08:25:36;99336.44;;;30.30
74321;BMP280;62738;45.772;4.804;2023-07-28T08:28:03;99339.25;;;30.38
74321;BMP280;62738;45.772;4.804;2023-07-28T08:30:30;99337.81;;;30.37
74321;BMP280;62738;45.772;4.804;2023-07-28T08:32:58;99338.53;;;30.42
74321;BMP280;62738;45.772;4.804;2023-07-28T08:35:25;99334.94;;;30.41
74321;BMP280;62738;45.772;4.804;2023-07-28T08:37:52;99333.41;;;30.52
74321;BMP280;62738;45.772;4.804;2023-07-28T08:40:19;99334.09;;;30.57
74321;BMP280;62738;45.772;4.804;2023-07-28T08:42:46;99344.09;;;30.64
74321;BMP280;62738;45.772;4.804;2023-07-28T08:45:13;99340.34;;;30.81
74321;BMP280;62738;45.772;4.804;2023-07-28T08:47:40;99333.94;;;30.77
74321;BMP280;62738;45.772;4.804;2023-07-28T08:50:07;99336.72;;;30.87
74321;BMP280;62738;45.772;4.804;2023-07-28T08:52:34;99336.03;;;30.84
74321;BMP280;62738;45.772;4.804;2023-07-28T08:55:00;99334.59;;;30.85
74321;BMP280;62738;45.772;4.804;2023-07-28T08:57:27;99319.44;;;30.99
74321;BMP280;62738;45.772;4.804;2023-07-28T08:59:54;99314.44;;;30.95
74321;BMP280;62738;45.772;4.804;2023-07-28T09:02:21;99323.69;;;31.04
74321;BMP280;62738;45.772;4.804;2023-07-28T09:04:48;99311.34;;;31.20
74321;BMP280;62738;45.772;4.804;2023-07-28T09:07:16;99319.13;;;31.31
74321;BMP280;62738;45.772;4.804;2023-07-28T09:09:42;99322.56;;;31.42
74321;BMP280;62738;45.772;4.804;2023-07-28T09:12:10;99321.00;;;31.55
74321;BMP280;62738;45.772;4.804;2023-07-28T09:14:37;99315.19;;;31.61
74321;BMP280;62738;45.772;4.804;2023-07-28T09:17:12;99317.31;;;31.64
74321;BMP280;62738;45.772;4.804;2023-07-28T09:19:54;99321.06;;;31.51
74321;BMP280;62738;45.772;4.804;2023-07-28T09:22:21;99321.81;;;31.45
74321;BMP280;62738;45.772;4.804;2023-07-28T09:24:49;99316.13;;;31.43
74321;BMP280;62738;45.772;4.804;2023-07-28T09:27:24;99323.97;;;31.45
74321;BMP280;62738;45.772;4.804;2023-07-28T09:29:53;99329.75;;;31.41
74321;BMP280;62738;45.772;4.804;2023-07-28T09:32:30;99326.09;;;31.48
74321;BMP280;62738;45.772;4.804;2023-07-28T09:35:07;99323.88;;;31.53
74321;BMP280;62738;45.772;4.804;2023-07-28T09:37:39;99321.06;;;31.51
74321;BMP280;62738;45.772;4.804;2023-07-28T09:40:09;99316.75;;;31.52
74321;BMP280;62738;45.772;4.804;2023-07-28T09:42:44;99312.41;;;31.53
74321;BMP280;62738;45.772;4.804;2023-07-28T09:45:11;99316.53;;;31.68
74321;BMP280;62738;45.772;4.804;2023-07-28T09:47:57;99311.31;;;31.85
74321;BMP280;62738;45.772;4.804;2023-07-28T09:50:27;99312.03;;;31.83
74321;BMP280;62738;45.772;4.804;2023-07-28T09:52:58;99304.16;;;31.84
74321;BMP280;62738;45.772;4.804;2023-07-28T09:55:28;99305.56;;;31.87
74321;BMP280;62738;45.772;4.804;2023-07-28T09:57:57;99314.69;;;31.99
74321;BMP280;62738;45.772;4.804;2023-07-28T10:00:25;99306.28;;;31.87
74321;BMP280;62738;45.772;4.804;2023-07-28T10:02:53;99297.69;;;31.85
74321;BMP280;62738;45.772;4.804;2023-07-28T10:05:19;99309.47;;;31.61
74321;BMP280;62738;45.772;4.804;2023-07-28T10:07:48;99311.00;;;31.50
74321;BMP280;62738;45.772;4.804;2023-07-28T10:10:15;99314.59;;;31.50
74321;BMP280;62738;45.772;4.804;2023-07-28T10:12:49;99316.13;;;31.41
74321;BMP280;62738;45.772;4.804;2023-07-28T10:15:19;99313.25;;;31.41
74321;BMP280;62738;45.772;4.804;2023-07-28T10:17:56;99314.09;;;31.32
74321;BMP280;62738;45.772;4.804;2023-07-28T10:20:37;99315.66;;;31.21
74321;BMP280;62738;45.772;4.804;2023-07-28T10:23:25;99309.97;;;31.17
74321;BMP280;62738;45.772;4.804;2023-07-28T10:25:59;99295.56;;;31.23
74321;BMP280;62738;45.772;4.804;2023-07-28T10:28:36;99301.69;;;31.51
74321;BMP280;62738;45.772;4.804;2023-07-28T10:31:11;99294.19;;;31.77
74321;BMP280;62738;45.772;4.804;2023-07-28T10:33:45;99289.25;;;32.24
74321;BMP280;62738;45.772;4.804;2023-07-28T10:36:32;99293.06;;;32.55
74321;BMP280;62738;45.772;4.804;2023-07-28T10:39:11;99276.00;;;32.45
74321;BMP280;62738;45.772;4.804;2023-07-28T10:41:38;99291.66;;;32.52
74321;BMP280;62738;45.772;4.804;2023-07-28T10:44:05;99296.25;;;32.78
74321;BMP280;62738;45.772;4.804;2023-07-28T10:46:34;99295.94;;;32.94
74321;BMP280;62738;45.772;4.804;2023-07-28T10:49:05;99296.53;;;33.02
74321;BMP280;62738;45.772;4.804;2023-07-28T10:51:31;99300.59;;;32.75
74321;BMP280;62738;45.772;4.804;2023-07-28T10:54:00;99281.13;;;31.90
74321;BMP280;62738;45.772;4.804;2023-07-28T10:56:29;99275.19;;;31.49
74321;BMP280;62738;45.772;4.804;2023-07-28T10:59:04;99279.50;;;31.48
74321;BMP280;62738;45.772;4.804;2023-07-28T11:01:35;99273.06;;;31.47
74321;BMP280;62738;45.772;4.804;2023-07-28T11:06:42;99259.38;;;31.54
74321;BMP280;62738;45.772;4.804;2023-07-28T11:09:10;99267.81;;;31.66
74321;BMP280;62738;45.772;4.804;2023-07-28T11:11:37;99251.88;;;31.77
74321;BMP280;62738;45.772;4.804;2023-07-28T11:14:08;99259.38;;;32.05
74321;BMP280;62738;45.772;4.804;2023-07-28T11:16:36;99265.91;;;31.99
74321;BMP280;62738;45.772;4.804;2023-07-28T11:19:08;99266.25;;;31.75
74321;BMP280;62738;45.772;4.804;2023-07-28T11:21:39;99260.78;;;31.55
74321;BMP280;62738;45.772;4.804;2023-07-28T11:24:10;99271.09;;;31.34
74321;BMP280;62738;45.772;4.804;2023-07-28T11:26:38;99266.38;;;31.06
74321;BMP280;62738;45.772;4.804;2023-07-28T11:29:05;99271.59;;;30.85
74321;BMP280;62738;45.772;4.804;2023-07-28T11:31:33;99266.38;;;31.04
74321;BMP280;62738;45.772;4.804;2023-07-28T11:34:00;99267.50;;;31.35
74321;BMP280;62738;45.772;4.804;2023-07-28T11:36:29;99266.13;;;31.30
74321;BMP280;62738;45.772;4.804;2023-07-28T11:38:58;99254.47;;;31.42
74321;BMP280;62738;45.772;4.804;2023-07-28T11:41:26;99257.44;;;31.36
74321;BMP280;62738;45.772;4.804;2023-07-28T11:43:53;99256.53;;;31.52
74321;BMP280;62738;45.772;4.804;2023-07-28T11:49:09;99265.59;;;31.70
74321;BMP280;62738;45.772;4.804;2023-07-28T11:51:40;99265.19;;;31.99
74321;BMP280;62738;45.772;4.804;2023-07-28T11:54:11;99255.50;;;32.24
74321;BMP280;62738;45.772;4.804;2023-07-28T11:56:39;99255.34;;;32.32
74321;BMP280;62738;45.772;4.804;2023-07-28T11:59:05;99262.06;;;32.60
74321;BMP280;62738;45.772;4.804;2023-07-28T12:01:32;99244.47;;;32.80
74321;BMP280;62738;45.772;4.804;2023-07-28T12:04:26;99250.41;;;32.72
74321;BMP280;62738;45.772;4.804;2023-07-28T12:12:30;99238.84;;;33.13
74321;BMP280;62738;45.772;4.804;2023-07-28T12:18:13;99229.94;;;32.90
74321;BMP280;62738;45.772;4.804;2023-07-28T12:20:45;99230.53;;;32.96
74321;BMP280;62738;45.772;4.804;2023-07-28T12:23:14;99233.00;;;33.17
74321;BMP280;62738;45.772;4.804;2023-07-28T12:25:44;99230.00;;;33.23
74321;BMP280;62738;45.772;4.804;2023-07-28T12:28:11;99233.28;;;33.37
74321;BMP280;62738;45.772;4.804;2023-07-28T12:30:41;99231.47;;;33.54
74321;BMP280;62738;45.772;4.804;2023-07-28T12:33:08;99224.88;;;33.60
74321;BMP280;62738;45.772;4.804;2023-07-28T12:35:47;99221.03;;;33.71
74321;BMP280;62738;45.772;4.804;2023-07-28T12:38:16;99214.44;;;33.77
74321;BMP280;62738;45.772;4.804;2023-07-28T12:40:45;99219.56;;;33.72
74321;BMP280;62738;45.772;4.804;2023-07-28T12:43:15;99222.38;;;33.77
74321;BMP280;62738;45.772;4.804;2023-07-28T12:45:44;99219.22;;;33.87
74321;BMP280;62738;45.772;4.804;2023-07-28T12:48:13;99221.72;;;34.03
74321;BMP280;62738;45.772;4.804;2023-07-28T12:50:43;99219.16;;;34.19
74321;BMP280;62738;45.772;4.804;2023-07-28T12:53:10;99215.38;;;34.27
74321;BMP280;62738;45.772;4.804;2023-07-28T12:55:44;99227.94;;;34.42
74321;BMP280;62738;45.772;4.804;2023-07-28T12:58:13;99228.53;;;34.47
74321;BMP280;62738;45.772;4.804;2023-07-28T13:00:44;99233.38;;;34.54
74321;BMP280;62738;45.772;4.804;2023-07-28T13:03:13;99213.41;;;34.46
74321;BMP280;62738;45.772;4.804;2023-07-28T13:05:40;99220.22;;;34.06
74321;BMP280;62738;45.772;4.804;2023-07-28T13:08:10;99219.88;;;34.20
74321;BMP280;62738;45.772;4.804;2023-07-28T13:10:37;99225.31;;;34.03
74321;BMP280;62738;45.772;4.804;2023-07-28T13:13:06;99228.84;;;34.06
74321;BMP280;62738;45.772;4.804;2023-07-28T13:15:38;99222.09;;;34.17
74321;BMP280;62738;45.772;4.804;2023-07-28T13:18:06;99218.44;;;34.19
74321;BMP280;62738;45.772;4.804;2023-07-28T13:20:32;99223.03;;;34.08
74321;BMP280;62738;45.772;4.804;2023-07-28T13:22:59;99226.53;;;34.12
74321;BMP280;62738;45.772;4.804;2023-07-28T13:25:26;99226.28;;;34.22
74321;BMP280;62738;45.772;4.804;2023-07-28T13:27:52;99227.78;;;34.19
74321;BMP280;62738;45.772;4.804;2023-07-28T13:30:20;99229.06;;;34.26
74321;BMP280;62738;45.772;4.804;2023-07-28T13:32:46;99224.28;;;34.43
74321;BMP280;62738;45.772;4.804;2023-07-28T13:35:13;99226.66;;;34.37
74321;BMP280;62738;45.772;4.804;2023-07-28T13:37:41;99222.78;;;34.18
74321;BMP280;62738;45.772;4.804;2023-07-28T13:40:08;99221.03;;;34.31
74321;BMP280;62738;45.772;4.804;2023-07-28T13:42:38;99218.75;;;34.35
74321;BMP280;62738;45.772;4.804;2023-07-28T13:45:05;99219.06;;;34.50
74321;BMP280;62738;45.772;4.804;2023-07-28T13:47:32;99212.31;;;34.62
74321;BMP280;62738;45.772;4.804;2023-07-28T13:49:59;99209.63;;;34.54
74321;BMP280;62738;45.772;4.804;2023-07-28T13:52:25;99215.38;;;34.54
74321;BMP280;62738;45.772;4.804;2023-07-28T13:54:53;99207.44;;;34.54
74321;BMP280;62738;45.772;4.804;2023-07-28T13:57:22;99207.41;;;34.56
74321;BMP280;62738;45.772;4.804;2023-07-28T13:59:49;99220.59;;;34.47
74321;BMP280;62738;45.772;4.804;2023-07-28T14:02:16;99214.19;;;34.44
74321;BMP280;62738;45.772;4.804;2023-07-28T14:04:44;99211.53;;;34.63
74321;BMP280;62738;45.772;4.804;2023-07-28T14:07:11;99213.78;;;34.85
74321;BMP280;62738;45.772;4.804;2023-07-28T14:09:37;99215.81;;;35.15
74321;BMP280;62738;45.772;4.804;2023-07-28T14:12:05;99204.19;;;35.42
74321;BMP280;62738;45.772;4.804;2023-07-28T14:14:32;99204.56;;;35.75
74321;BMP280;62738;45.772;4.804;2023-07-28T14:16:58;99205.94;;;35.99
74321;BMP280;62738;45.772;4.804;2023-07-28T14:19:25;99204.28;;;36.06
74321;BMP280;62738;45.772;4.804;2023-07-28T14:21:52;99200.47;;;36.32
74321;BMP280;62738;45.772;4.804;2023-07-28T14:24:19;99187.50;;;36.52
74321;BMP280;62738;45.772;4.804;2023-07-28T14:26:46;99185.09;;;36.58